createdAt,value
2019-05-11T00:01:05.234Z,97393.27
2019-05-11T00:03:35.439Z,97388.55
2019-05-11T00:06:05.638Z,97391.95
2019-05-11T00:08:35.966Z,97387.20
2019-05-11T00:11:06.183Z,97381.58
2019-05-11T00:13:36.486Z,97379.63
2019-05-11T00:16:06.689Z,97369.58
2019-05-11T00:18:37.026Z,97366.61
2019-05-11T00:21:07.249Z,97376.41
2019-05-11T00:23:37.546Z,97374.70
2019-05-11T00:26:07.902Z,97377.53
2019-05-11T00:28:38.003Z,97371.27
2019-05-11T00:31:08.093Z,97373.34
2019-05-11T00:33:38.444Z,97368.73
2019-05-11T00:36:08.595Z,97363.71
2019-05-11T00:38:38.550Z,97365.48
2019-05-11T00:41:08.777Z,97369.48
2019-05-11T00:43:38.738Z,97369.98
2019-05-11T00:46:08.730Z,97377.75
2019-05-11T00:48:38.665Z,97374.66
2019-05-11T00:51:08.966Z,97378.60
2019-05-11T00:53:38.901Z,97377.40
2019-05-11T00:56:09.222Z,97370.52
2019-05-11T00:58:38.817Z,97367.42
2019-05-11T01:01:09.100Z,97367.24
2019-05-11T01:03:38.985Z,97370.63
2019-05-11T01:06:08.976Z,97369.57
2019-05-11T01:08:39.433Z,97369.57
2019-05-11T01:11:09.067Z,97366.02
2019-05-11T01:13:39.052Z,97374.25
2019-05-11T01:16:09.135Z,97384.75
2019-05-11T01:18:39.181Z,97380.72
2019-05-11T01:21:09.259Z,97378.53
2019-05-11T01:23:39.215Z,97378.70
2019-05-11T01:26:09.311Z,97382.95
2019-05-11T01:28:39.244Z,97384.20
2019-05-11T01:31:09.377Z,97377.68
2019-05-11T01:33:39.335Z,97369.23
2019-05-11T01:36:09.389Z,97368.73
2019-05-11T01:38:39.351Z,97375.34
2019-05-11T01:41:09.456Z,97373.91
2019-05-11T01:43:39.476Z,97375.69
2019-05-11T01:46:09.472Z,97366.99
2019-05-11T01:48:39.436Z,97369.45
2019-05-11T01:51:09.893Z,97377.25
2019-05-11T01:53:39.620Z,97381.00
2019-05-11T01:56:09.652Z,97381.35
2019-05-11T01:58:39.601Z,97382.55
2019-05-11T02:01:09.774Z,97375.73
2019-05-11T02:03:40.654Z,97378.87
2019-05-11T02:06:10.051Z,97373.92
2019-05-11T02:08:39.848Z,97378.14
2019-05-11T02:11:16.049Z,97383.90
2019-05-11T02:13:41.384Z,97383.76
2019-05-11T02:16:10.762Z,97385.31
2019-05-11T02:18:40.151Z,97381.38
2019-05-11T02:21:10.045Z,97385.20
2019-05-11T02:23:40.002Z,97384.92
2019-05-11T02:26:10.062Z,97386.12
2019-05-11T02:28:40.083Z,97380.46
2019-05-11T02:31:10.573Z,97378.41
2019-05-11T02:33:40.131Z,97378.98
2019-05-11T02:36:10.214Z,97372.48
2019-05-11T02:38:40.284Z,97372.16
2019-05-11T02:41:10.645Z,97369.39
2019-05-11T02:43:40.553Z,97362.02
2019-05-11T02:46:10.674Z,97353.39
2019-05-11T02:48:40.344Z,97352.83
2019-05-11T02:51:11.085Z,97351.28
2019-05-11T02:53:42.697Z,97342.87
2019-05-11T02:56:12.080Z,97346.30
2019-05-11T02:58:42.314Z,97340.36
2019-05-11T03:01:11.778Z,97333.58
2019-05-11T03:03:42.138Z,97339.03
2019-05-11T03:06:11.764Z,97333.16
2019-05-11T03:08:41.177Z,97336.82
2019-05-11T03:11:10.674Z,97335.22
2019-05-11T03:13:40.724Z,97328.58
2019-05-11T03:16:11.531Z,97327.95
2019-05-11T03:18:40.904Z,97316.66
2019-05-11T03:21:10.819Z,97330.30
2019-05-11T03:23:40.750Z,97329.89
2019-05-11T03:26:10.840Z,97324.22
2019-05-11T03:28:40.781Z,97333.73
2019-05-11T03:31:10.168Z,97323.11
2019-05-11T03:33:39.535Z,97324.27
2019-05-11T03:36:08.933Z,97324.05
2019-05-11T03:38:38.298Z,97329.98
2019-05-11T03:41:07.763Z,97330.02
2019-05-11T03:43:37.141Z,97333.87
2019-05-11T03:46:06.513Z,97337.09
2019-05-11T03:48:36.886Z,97343.53
2019-05-11T03:51:06.243Z,97343.57
2019-05-11T03:53:35.629Z,97336.31
2019-05-11T03:56:05.013Z,97340.67
2019-05-11T03:58:34.384Z,97350.15
2019-05-11T04:01:03.771Z,97355.02
2019-05-11T04:03:33.143Z,97354.30
2019-05-11T04:06:02.529Z,97357.95
2019-05-11T04:08:32.196Z,97352.41
2019-05-11T04:11:01.575Z,97339.03
2019-05-11T04:13:30.954Z,97348.42
2019-05-11T04:16:00.701Z,97349.48
2019-05-11T04:18:31.052Z,97336.44
2019-05-11T04:21:01.259Z,97342.11
2019-05-11T04:23:31.470Z,97338.94
2019-05-11T04:26:01.808Z,97335.64
2019-05-11T04:28:31.936Z,97329.41
2019-05-11T04:31:02.243Z,97329.41
2019-05-11T04:33:33.333Z,97331.09
2019-05-11T04:36:03.971Z,97330.56
2019-05-11T04:38:33.417Z,97328.67
2019-05-11T04:41:03.357Z,97331.83
2019-05-11T04:43:33.484Z,97333.93
2019-05-11T04:46:03.807Z,97342.23
2019-05-11T04:48:33.991Z,97353.56
2019-05-11T04:51:04.418Z,97349.51
2019-05-11T04:53:34.769Z,97349.80
2019-05-11T04:56:04.793Z,97350.28
2019-05-11T04:58:34.962Z,97346.05
2019-05-11T05:01:05.393Z,97345.91
2019-05-11T05:03:40.663Z,97338.83
2019-05-11T05:06:24.341Z,97336.07
2019-05-11T05:08:38.111Z,97340.92
2019-05-11T05:11:07.495Z,97337.45
2019-05-11T05:13:37.858Z,97335.81
2019-05-11T05:16:07.242Z,97329.20
2019-05-11T05:18:37.287Z,97328.64
2019-05-11T05:21:07.244Z,97333.58
2019-05-11T05:23:37.761Z,97332.31
2019-05-11T05:26:07.816Z,97336.94
2019-05-11T05:28:38.014Z,97334.91
2019-05-11T05:31:08.206Z,97331.14
2019-05-11T05:33:38.495Z,97331.02
2019-05-11T05:36:08.624Z,97329.17
2019-05-11T05:38:39.089Z,97327.63
2019-05-11T05:41:09.162Z,97328.05
2019-05-11T05:43:39.414Z,97326.70
2019-05-11T05:46:09.584Z,97315.28
2019-05-11T05:48:39.804Z,97318.63
2019-05-11T05:51:10.115Z,97319.48
2019-05-11T05:53:40.341Z,97320.52
2019-05-11T05:56:10.630Z,97327.35
2019-05-11T05:58:40.856Z,97336.82
2019-05-11T06:01:11.190Z,97331.75
2019-05-11T06:03:41.351Z,97328.09
2019-05-11T06:06:11.672Z,97319.55
2019-05-11T06:08:43.279Z,97318.38
2019-05-11T06:11:13.218Z,97319.18
2019-05-11T06:13:45.646Z,97310.05
2019-05-11T06:16:14.287Z,97313.59
2019-05-11T06:18:44.333Z,97304.05
2019-05-11T06:21:14.216Z,97311.06
2019-05-11T06:23:44.394Z,97314.67
2019-05-11T06:26:14.694Z,97318.63
2019-05-11T06:28:45.228Z,97311.56
2019-05-11T06:31:15.164Z,97305.43
2019-05-11T06:33:45.418Z,97298.38
2019-05-11T06:36:14.798Z,97292.41
2019-05-11T06:38:44.842Z,97289.03
2019-05-11T06:41:15.224Z,97287.72
2019-05-11T06:44:00.688Z,97276.20
2019-05-11T06:46:16.701Z,97276.98
2019-05-11T06:48:46.181Z,97279.17
2019-05-11T06:51:16.279Z,97271.23
2019-05-11T06:53:46.491Z,97274.72
2019-05-11T06:56:16.908Z,97265.55
2019-05-11T06:58:46.919Z,97268.60
2019-05-11T07:01:17.340Z,97276.48
2019-05-11T07:03:47.591Z,97276.95
2019-05-11T07:06:17.975Z,97287.06
2019-05-11T07:08:48.102Z,97298.85
2019-05-11T07:11:18.340Z,97303.91
2019-05-11T07:13:48.510Z,97290.80
2019-05-11T07:16:18.873Z,97286.30
2019-05-11T07:18:48.262Z,97265.83
2019-05-11T07:21:17.642Z,97259.08
2019-05-11T07:23:47.027Z,97264.81
2019-05-11T07:26:16.594Z,97260.42
2019-05-11T07:28:46.073Z,97252.67
2019-05-11T07:31:15.595Z,97254.86
2019-05-11T07:33:45.690Z,97242.02
2019-05-11T07:36:17.595Z,97240.67
2019-05-11T07:38:48.729Z,97241.51
2019-05-11T07:41:18.144Z,97238.91
2019-05-11T07:43:48.487Z,97233.56
2019-05-11T07:46:18.353Z,97228.65
2019-05-11T07:48:48.074Z,97235.08
2019-05-11T07:51:18.263Z,97232.13
2019-05-11T07:53:48.607Z,97226.13
2019-05-11T07:56:18.923Z,97224.28
2019-05-11T07:58:48.427Z,97226.54
2019-05-11T08:01:18.829Z,97233.16
2019-05-11T08:03:48.669Z,97233.51
2019-05-11T08:06:19.040Z,97232.53
2019-05-11T08:08:49.392Z,97229.16
2019-05-11T08:11:19.754Z,97215.86
2019-05-11T08:13:49.132Z,97218.39
2019-05-11T08:16:18.759Z,97215.77
2019-05-11T08:18:48.443Z,97213.38
2019-05-11T08:21:18.089Z,97206.94
2019-05-11T08:23:48.358Z,97206.55
2019-05-11T08:26:19.025Z,97205.84
2019-05-11T08:28:48.802Z,97205.48
2019-05-11T08:31:18.779Z,97194.43
2019-05-11T08:33:48.314Z,97197.68
2019-05-11T08:36:18.513Z,97188.52
2019-05-11T08:38:48.446Z,97187.48
2019-05-11T08:41:18.551Z,97185.54
2019-05-11T08:43:49.065Z,97188.98
2019-05-11T08:46:18.743Z,97189.84
2019-05-11T08:48:48.134Z,97187.29
2019-05-11T08:51:18.751Z,97183.23
2019-05-11T08:53:48.291Z,97186.25
2019-05-11T08:56:18.882Z,97185.92
2019-05-11T08:58:49.173Z,97180.30
2019-05-11T09:01:18.723Z,97174.84
2019-05-11T09:03:49.098Z,97170.31
2019-05-11T09:06:18.440Z,97176.17
2019-05-11T09:08:49.356Z,97167.16
2019-05-11T09:11:19.340Z,97174.48
2019-05-11T09:13:49.081Z,97167.51
2019-05-11T09:16:19.422Z,97165.08
2019-05-11T09:18:48.888Z,97162.55
2019-05-11T09:21:18.998Z,97161.84
2019-05-11T09:23:48.827Z,97160.02
2019-05-11T09:26:18.455Z,97159.23
2019-05-11T09:28:47.875Z,97157.70
2019-05-11T09:31:18.859Z,97156.05
2019-05-11T09:33:48.379Z,97151.95
2019-05-11T09:36:18.285Z,97151.80
2019-05-11T09:38:48.944Z,97154.12
2019-05-11T09:41:18.464Z,97152.77
2019-05-11T09:43:48.817Z,97146.27
2019-05-11T09:46:18.989Z,97144.61
2019-05-11T09:48:48.889Z,97139.66
2019-05-11T09:51:18.627Z,97136.50
2019-05-11T09:53:48.520Z,97142.29
2019-05-11T09:56:18.913Z,97140.41
2019-05-11T09:58:48.310Z,97149.89
2019-05-11T10:01:18.491Z,97142.52
2019-05-11T10:03:48.893Z,97149.44
2019-05-11T10:06:19.137Z,97146.52
2019-05-11T10:08:48.891Z,97147.80
2019-05-11T10:11:19.128Z,97139.00
2019-05-11T10:13:48.564Z,97138.22
2019-05-11T10:16:18.276Z,97137.84
2019-05-11T10:18:49.191Z,97134.58
2019-05-11T10:21:19.021Z,97130.33
2019-05-11T10:23:48.897Z,97128.62
2019-05-11T10:26:18.982Z,97118.94
2019-05-11T10:28:48.507Z,97109.78
2019-05-11T10:31:18.355Z,97108.77
2019-05-11T10:33:48.958Z,97100.15
2019-05-11T10:36:19.095Z,97096.39
2019-05-11T10:38:49.521Z,97094.40
2019-05-11T10:41:18.924Z,97094.99
2019-05-11T10:43:49.322Z,97089.63
2019-05-11T10:46:23.241Z,97089.28
2019-05-11T10:48:51.132Z,97081.95
2019-05-11T10:51:20.775Z,97081.95
2019-05-11T10:53:52.084Z,97085.15
2019-05-11T10:56:21.312Z,97082.27
2019-05-11T10:58:50.692Z,97082.05
2019-05-11T11:01:20.608Z,97081.80
2019-05-11T11:03:50.772Z,97074.56
2019-05-11T11:06:21.134Z,97074.06
2019-05-11T11:08:51.358Z,97069.69
2019-05-11T11:11:21.572Z,97060.36
2019-05-11T11:13:51.806Z,97056.33
2019-05-11T11:16:35.764Z,97056.33
2019-05-11T11:18:53.781Z,97056.85
2019-05-11T11:21:23.769Z,97056.16
2019-05-11T11:23:53.845Z,97067.63
2019-05-11T11:26:24.131Z,97056.73
2019-05-11T11:28:54.358Z,97057.55
2019-05-11T11:31:24.696Z,97059.09
2019-05-11T11:33:57.803Z,97049.66
2019-05-11T11:36:28.214Z,97053.36
2019-05-11T11:38:58.404Z,97051.00
2019-05-11T11:41:29.913Z,97043.95
2019-05-11T11:43:58.960Z,97049.59
2019-05-11T11:46:28.336Z,97035.92
2019-05-11T11:48:58.186Z,97040.00
2019-05-11T11:51:28.617Z,97028.41
2019-05-11T11:53:58.484Z,97029.14
2019-05-11T11:56:28.378Z,97023.96
2019-05-11T11:58:58.077Z,97019.78
2019-05-11T12:01:28.205Z,97016.23
2019-05-11T12:03:58.580Z,97016.23
2019-05-11T12:06:28.188Z,97013.98
2019-05-11T12:08:58.678Z,97010.02
2019-05-11T12:11:28.064Z,97007.60
2019-05-11T12:13:58.078Z,97005.59
2019-05-11T12:16:28.309Z,96997.76
2019-05-11T12:18:58.451Z,96993.22
2019-05-11T12:21:28.804Z,96988.77
2019-05-11T12:23:58.979Z,96989.89
2019-05-11T12:26:29.337Z,96984.91
2019-05-11T12:28:59.513Z,96993.18
2019-05-11T12:31:32.596Z,96984.80
2019-05-11T12:34:01.232Z,96978.70
2019-05-11T12:36:30.617Z,96968.85
2019-05-11T12:39:00.579Z,96975.91
2019-05-11T12:41:30.853Z,96971.72
2019-05-11T12:44:01.117Z,96974.70
2019-05-11T12:46:31.451Z,96962.91
2019-05-11T12:49:01.663Z,96964.52
2019-05-11T12:51:31.883Z,96963.06
2019-05-11T12:54:02.079Z,96953.92
2019-05-11T12:56:32.395Z,96959.63
2019-05-11T12:59:02.628Z,96950.78
2019-05-11T13:01:32.936Z,96950.77
2019-05-11T13:04:03.121Z,96940.78
2019-05-11T13:06:33.482Z,96949.04
2019-05-11T13:09:03.988Z,96942.15
2019-05-11T13:11:33.899Z,96937.30
2019-05-11T13:14:04.135Z,96937.84
2019-05-11T13:16:34.388Z,96941.97
2019-05-11T13:19:04.551Z,96927.72
2019-05-11T13:21:34.937Z,96931.00
2019-05-11T13:24:05.075Z,96931.91
2019-05-11T13:26:37.451Z,96930.97
2019-05-11T13:29:07.756Z,96923.80
2019-05-11T13:31:38.373Z,96918.33
2019-05-11T13:34:08.340Z,96921.82
2019-05-11T13:36:38.307Z,96915.79
2019-05-11T13:39:08.859Z,96907.86
2019-05-11T13:41:38.486Z,96901.94
2019-05-11T13:44:08.157Z,96894.52
2019-05-11T13:46:38.867Z,96893.63
2019-05-11T13:49:08.698Z,96892.09
2019-05-11T13:51:38.786Z,96888.46
2019-05-11T13:54:08.559Z,96887.64
2019-05-11T13:56:38.081Z,96879.98
2019-05-11T13:59:10.650Z,96877.02
2019-05-11T14:01:40.293Z,96870.81
2019-05-11T14:04:09.682Z,96871.50
2019-05-11T14:06:39.083Z,96864.73
2019-05-11T14:09:09.031Z,96856.22
2019-05-11T14:11:39.222Z,96852.41
2019-05-11T14:14:08.665Z,96849.91
2019-05-11T14:16:38.136Z,96852.80
2019-05-11T14:19:08.671Z,96840.28
2019-05-11T14:21:38.562Z,96839.95
2019-05-11T14:24:09.098Z,96833.24
2019-05-11T14:26:38.770Z,96827.48
2019-05-11T14:29:08.675Z,96829.73
2019-05-11T14:31:38.902Z,96826.36
2019-05-11T14:34:09.084Z,96827.09
2019-05-11T14:36:38.968Z,96829.59
2019-05-11T14:39:08.810Z,96833.75
2019-05-11T14:41:38.431Z,96834.53
2019-05-11T14:44:08.816Z,96827.02
2019-05-11T14:46:38.689Z,96821.30
2019-05-11T14:49:08.155Z,96821.97
2019-05-11T14:51:39.186Z,96814.80
2019-05-11T14:54:08.701Z,96823.61
2019-05-11T14:56:38.337Z,96820.48
2019-05-11T14:59:09.211Z,96811.70
2019-05-11T15:01:38.675Z,96815.89
2019-05-11T15:04:08.974Z,96812.20
2019-05-11T15:06:38.831Z,96808.76
2019-05-11T15:09:08.558Z,96806.87
2019-05-11T15:11:38.858Z,96807.81
2019-05-11T15:14:08.419Z,96805.95
2019-05-11T15:16:38.550Z,96807.86
2019-05-11T15:19:08.279Z,96810.02
2019-05-11T15:21:38.741Z,96800.19
2019-05-11T15:24:09.291Z,96803.69
2019-05-11T15:26:39.121Z,96792.73
2019-05-11T15:29:08.509Z,96791.75
2019-05-11T15:31:38.279Z,96795.34
2019-05-11T15:34:08.834Z,96792.48
2019-05-11T15:36:38.839Z,96791.80
2019-05-11T15:39:08.353Z,96794.66
2019-05-11T15:41:38.827Z,96801.64
2019-05-11T15:44:12.045Z,96786.83
2019-05-11T15:46:40.443Z,96791.89
2019-05-11T15:49:09.837Z,96787.30
2019-05-11T15:51:41.218Z,96791.03
2019-05-11T15:54:10.579Z,96790.73
2019-05-11T15:56:40.247Z,96791.65
2019-05-11T15:59:09.622Z,96788.38
2019-05-11T16:01:41.193Z,96791.94
2019-05-11T16:04:10.393Z,96792.26
2019-05-11T16:06:39.758Z,96791.41
2019-05-11T16:09:09.158Z,96789.00
2019-05-11T16:11:39.028Z,96791.12
2019-05-11T16:14:09.018Z,96791.34
2019-05-11T16:16:39.208Z,96785.63
2019-05-11T16:19:14.819Z,96781.45
2019-05-11T16:21:40.758Z,96785.20
2019-05-11T16:24:10.390Z,96770.16
2019-05-11T16:26:39.777Z,96766.02
2019-05-11T16:29:11.443Z,96762.20
2019-05-11T16:31:40.505Z,96754.86
2019-05-11T16:34:09.882Z,96769.64
2019-05-11T16:36:39.261Z,96764.43
2019-05-11T16:39:10.439Z,96776.05
2019-05-11T16:41:39.981Z,96773.72
2019-05-11T16:44:09.370Z,96767.88
2019-05-11T16:46:39.069Z,96779.13
2019-05-11T16:49:10.737Z,96773.69
2019-05-11T16:51:39.827Z,96775.86
2019-05-11T16:54:09.221Z,96794.06
2019-05-11T16:56:38.593Z,96790.52
2019-05-11T16:59:08.460Z,96791.56
2019-05-11T17:01:38.432Z,96799.51
2019-05-11T17:04:08.999Z,96794.30
2019-05-11T17:06:38.795Z,96797.88
2019-05-11T17:09:09.037Z,96800.03
2019-05-11T17:11:38.674Z,96810.59
2019-05-11T17:14:08.569Z,96807.59
2019-05-11T17:16:38.925Z,96810.39
2019-05-11T17:19:09.226Z,96806.89
2019-05-11T17:21:38.630Z,96808.66
2019-05-11T17:24:08.668Z,96811.20
2019-05-11T17:26:38.768Z,96799.50
2019-05-11T17:29:10.081Z,96806.84
2019-05-11T17:31:40.638Z,96807.75
2019-05-11T17:34:10.034Z,96811.95
2019-05-11T17:36:39.604Z,96816.41
2019-05-11T17:39:09.862Z,96823.31
2019-05-11T17:41:40.048Z,96827.33
2019-05-11T17:44:10.417Z,96839.91
2019-05-11T17:46:40.518Z,96839.91
2019-05-11T17:49:10.907Z,96831.90
2019-05-11T17:51:40.871Z,96848.23
2019-05-11T17:54:11.485Z,96854.31
2019-05-11T17:56:41.355Z,96867.89
2019-05-11T17:59:11.567Z,96866.61
2019-05-11T18:01:41.747Z,96864.94
2019-05-11T18:04:12.008Z,96869.37
2019-05-11T18:06:42.186Z,96878.02
2019-05-11T18:09:12.438Z,96884.09
2019-05-11T18:11:42.661Z,96894.72
2019-05-11T18:14:12.814Z,96897.44
2019-05-11T18:16:43.018Z,96899.49
2019-05-11T18:19:13.268Z,96903.38
2019-05-11T18:21:43.425Z,96914.15
2019-05-11T18:24:13.873Z,96916.27
2019-05-11T18:26:43.974Z,96914.48
2019-05-11T18:29:14.479Z,96920.09
2019-05-11T18:31:44.297Z,96923.61
2019-05-11T18:34:14.569Z,96926.52
2019-05-11T18:36:44.845Z,96925.92
2019-05-11T18:39:14.934Z,96937.06
2019-05-11T18:41:45.215Z,96943.05
2019-05-11T18:44:15.417Z,96941.92
2019-05-11T18:46:48.017Z,96944.42
2019-05-11T18:49:17.935Z,96956.05
2019-05-11T18:51:48.308Z,96960.30
2019-05-11T18:54:19.189Z,96974.62
2019-05-11T18:56:48.963Z,97001.95
2019-05-11T18:59:19.528Z,97009.23
2019-05-11T19:01:49.353Z,97023.52
2019-05-11T19:04:18.672Z,97022.70
2019-05-11T19:06:48.516Z,97066.48
2019-05-11T19:09:18.170Z,97075.16
2019-05-11T19:11:48.977Z,97078.33
2019-05-11T19:14:18.525Z,97075.76
2019-05-11T19:16:49.121Z,97086.55
2019-05-11T19:19:18.651Z,97093.16
2019-05-11T19:21:48.401Z,97101.16
2019-05-11T19:24:19.029Z,97097.48
2019-05-11T19:26:51.235Z,97117.86
2019-05-11T19:29:20.606Z,97123.84
2019-05-11T19:31:50.604Z,97126.12
2019-05-11T19:34:20.685Z,97140.91
2019-05-11T19:36:50.621Z,97157.13
2019-05-11T19:39:20.731Z,97158.72
2019-05-11T19:41:50.581Z,97171.10
2019-05-11T19:44:20.571Z,97180.50
2019-05-11T19:46:50.700Z,97180.80
2019-05-11T19:49:20.793Z,97189.09
2019-05-11T19:51:50.923Z,97189.15
2019-05-11T19:54:21.108Z,97194.11
2019-05-11T19:56:52.426Z,97194.31
2019-05-11T19:59:21.938Z,97190.67
2019-05-11T20:01:51.311Z,97204.11
2019-05-11T20:04:21.131Z,97202.25
2019-05-11T20:06:51.138Z,97205.15
2019-05-11T20:09:21.170Z,97203.57
2019-05-11T20:11:51.720Z,97212.02
2019-05-11T20:14:21.207Z,97204.06
2019-05-11T20:16:51.207Z,97216.17
2019-05-11T20:19:21.556Z,97217.86
2019-05-11T20:21:51.330Z,97223.49
2019-05-11T20:24:21.428Z,97224.16
2019-05-11T20:26:51.239Z,97228.78
2019-05-11T20:29:21.243Z,97231.80
2019-05-11T20:31:51.263Z,97240.91
2019-05-11T20:34:21.290Z,97237.98
2019-05-11T20:36:51.281Z,97231.61
2019-05-11T20:39:21.368Z,97237.36
2019-05-11T20:41:52.337Z,97225.53
2019-05-11T20:44:21.735Z,97222.18
2019-05-11T20:46:51.446Z,97209.00
2019-05-11T20:49:21.451Z,97207.32
2019-05-11T20:51:51.368Z,97207.32
2019-05-11T20:54:21.520Z,97209.68
2019-05-11T20:56:51.410Z,97204.66
2019-05-11T20:59:21.379Z,97208.02
2019-05-11T21:01:51.570Z,97209.25
2019-05-11T21:04:21.572Z,97202.61
2019-05-11T21:06:51.505Z,97228.27
2019-05-11T21:09:21.594Z,97201.43
2019-05-11T21:11:51.594Z,97218.83
2019-05-11T21:14:21.777Z,97234.99
2019-05-11T21:16:51.618Z,97234.63
2019-05-11T21:19:21.664Z,97243.45
2019-05-11T21:21:53.879Z,97237.65
2019-05-11T21:24:22.859Z,97247.11
2019-05-11T21:26:52.260Z,97246.11
2019-05-11T21:29:21.666Z,97238.89
2019-05-11T21:31:51.640Z,97233.14
2019-05-11T21:34:21.666Z,97226.23
2019-05-11T21:36:51.676Z,97220.14
2019-05-11T21:39:21.698Z,97239.63
2019-05-11T21:41:51.728Z,97253.56
2019-05-11T21:44:21.742Z,97259.97
2019-05-11T21:46:51.661Z,97261.66
2019-05-11T21:49:21.772Z,97273.38
2019-05-11T21:52:03.657Z,97283.73
2019-05-11T21:54:23.148Z,97291.31
2019-05-11T21:56:52.403Z,97290.09
2019-05-11T21:59:21.789Z,97283.53
2019-05-11T22:01:51.759Z,97292.27
2019-05-11T22:04:21.775Z,97301.72
2019-05-11T22:06:51.859Z,97305.77
2019-05-11T22:09:21.892Z,97320.17
2019-05-11T22:11:51.771Z,97338.03
2019-05-11T22:14:21.794Z,97342.54
2019-05-11T22:16:51.792Z,97354.77
2019-05-11T22:19:21.810Z,97350.77
2019-05-11T22:21:51.827Z,97354.91
2019-05-11T22:24:21.835Z,97335.63
2019-05-11T22:26:51.857Z,97342.55
2019-05-11T22:29:21.891Z,97339.36
2019-05-11T22:31:51.890Z,97340.14
2019-05-11T22:34:22.081Z,97328.19
2019-05-11T22:36:52.363Z,97324.99
2019-05-11T22:39:22.867Z,97329.28
2019-05-11T22:41:53.079Z,97330.47
2019-05-11T22:44:22.989Z,97321.69
2019-05-11T22:46:53.052Z,97321.69
2019-05-11T22:49:23.411Z,97325.20
2019-05-11T22:51:53.503Z,97323.91
2019-05-11T22:54:23.665Z,97327.76
2019-05-11T22:56:53.741Z,97334.79
2019-05-11T22:59:23.980Z,97338.39
2019-05-11T23:01:54.089Z,97345.60
2019-05-11T23:04:24.370Z,97349.53
2019-05-11T23:06:54.568Z,97354.15
2019-05-11T23:09:24.804Z,97353.92
2019-05-11T23:11:54.957Z,97361.76
2019-05-11T23:14:25.210Z,97360.52
2019-05-11T23:16:55.473Z,97362.77
2019-05-11T23:19:27.740Z,97348.88
2019-05-11T23:21:58.735Z,97348.27
2019-05-11T23:24:28.782Z,97345.21
2019-05-11T23:26:58.907Z,97347.46
2019-05-11T23:29:28.302Z,97343.49
2019-05-11T23:31:58.348Z,97349.78
2019-05-11T23:34:28.327Z,97339.57
2019-05-11T23:36:59.125Z,97349.23
2019-05-11T23:39:28.583Z,97327.72
2019-05-11T23:41:58.666Z,97335.09
2019-05-11T23:44:28.028Z,97313.88
2019-05-11T23:46:58.107Z,97316.25
2019-05-11T23:49:28.160Z,97308.67
2019-05-11T23:51:58.365Z,97301.11
2019-05-11T23:54:28.618Z,97306.32
2019-05-11T23:56:59.027Z,97305.19
2019-05-11T23:59:29.010Z,97303.80
